Time;durP1;ratioP1;P1;durP2;ratioP2;P2;SDS_P1;SDS_P2;PMS_P1;PMS_P2;Temp;Humidity;BMP_temperature;BMP_pressure;BME280_temperature;BME280_humidity;BME280_pressure;Samples;Min_cycle;Max_cycle;Signal;HPM_P1;HPM_P2
2022/09/23 00:01:08;;;;;;;12.73;8.45;;;;;;;9.17;76.26;100036.48;1714984;83;21360;-69
2022/09/23 00:03:37;;;;;;;10.50;8.35;;;;;;;9.18;76.30;100034.69;1701370;83;22523;-70
2022/09/23 00:06:09;;;;;;;10.03;7.78;;;;;;;9.19;76.38;100027.14;1711711;82;20998;-69
2022/09/23 00:08:36;;;;;;;12.68;7.90;;;;;;;9.21;76.42;100023.06;1710472;82;21429;-70
2022/09/23 00:11:08;;;;;;;10.43;8.70;;;;;;;9.23;76.42;100023.77;1708583;82;21106;-70
2022/09/23 00:13:36;;;;;;;12.50;8.10;;;;;;;9.22;76.45;100014.19;1688351;82;21004;-70
2022/09/23 00:16:08;;;;;;;15.85;9.43;;;;;;;9.21;76.46;100017.30;1713363;82;21933;-70
2022/09/23 00:18:34;;;;;;;13.13;9.00;;;;;;;9.18;76.57;100014.45;1708801;82;21422;-70
2022/09/23 00:21:04;;;;;;;10.93;9.05;;;;;;;9.20;76.70;100011.69;1709094;82;20906;-70
2022/09/23 00:23:31;;;;;;;15.38;10.10;;;;;;;9.22;76.79;100010.23;1713230;83;21052;-69
2022/09/23 00:26:00;;;;;;;12.40;9.38;;;;;;;9.24;76.83;100005.67;1715585;83;21109;-72
2022/09/23 00:28:26;;;;;;;13.55;9.23;;;;;;;9.27;76.85;100004.14;1706886;83;21852;-70
2022/09/23 00:30:53;;;;;;;13.53;10.08;;;;;;;9.29;76.88;100000.41;1671864;85;21475;-70
2022/09/23 00:33:20;;;;;;;17.67;9.68;;;;;;;9.31;76.92;99995.02;1684115;85;21015;-70
2022/09/23 00:35:46;;;;;;;15.98;10.13;;;;;;;9.32;76.94;99992.25;1684406;84;20999;-70
2022/09/23 00:38:13;;;;;;;14.03;9.80;;;;;;;9.32;77.01;99989.61;1714977;83;21043;-72
2022/09/23 00:40:46;;;;;;;15.78;10.25;;;;;;;9.37;77.11;99990.58;1695678;83;21929;-69
2022/09/23 00:43:13;;;;;;;14.58;10.20;;;;;;;9.38;77.13;99987.81;1696578;83;21005;-69
2022/09/23 00:45:47;;;;;;;16.05;10.40;;;;;;;9.41;77.12;99988.88;1714538;83;21012;-69
2022/09/23 00:48:17;;;;;;;15.35;10.68;;;;;;;9.42;77.17;99990.55;1710827;82;20973;-70
2022/09/23 00:50:48;;;;;;;16.17;10.90;;;;;;;9.45;77.21;99990.77;1699429;83;21048;-69
2022/09/23 00:53:16;;;;;;;18.20;10.43;;;;;;;9.46;77.25;99983.25;1684674;83;23670;-69
2022/09/23 00:55:47;;;;;;;15.40;10.32;;;;;;;9.50;77.30;99989.94;1694478;84;20964;-69
2022/09/23 00:58:19;;;;;;;13.85;9.75;;;;;;;9.54;77.31;99987.88;1701677;83;20976;-69
2022/09/23 01:00:45;;;;;;;15.23;9.80;;;;;;;9.54;77.31;99986.08;1694884;83;21414;-69
2022/09/23 01:03:13;;;;;;;17.12;9.95;;;;;;;9.55;77.37;99989.06;1692539;84;21001;-69
2022/09/23 01:05:39;;;;;;;15.20;9.48;;;;;;;9.58;77.47;99981.41;1669757;85;21862;-69
2022/09/23 01:08:08;;;;;;;14.68;10.03;;;;;;;9.61;77.52;99981.15;1689523;83;21486;-70
2022/09/23 01:10:55;;;;;;;16.77;10.32;;;;;;;9.66;77.55;99982.45;1682473;83;20964;-70
2022/09/23 01:13:59;;;;;;;13.90;8.85;;;;;;;9.69;77.56;99978.24;1682159;84;21590;-70
2022/09/23 01:16:52;;;;;;;13.28;8.78;;;;;;;9.74;77.56;99976.53;1677748;84;20992;-70
2022/09/23 01:19:37;;;;;;;12.25;8.03;;;;;;;9.74;77.44;99975.22;1691206;83;21784;-70
2022/09/23 01:22:09;;;;;;;11.97;7.78;;;;;;;9.73;77.44;99969.10;1707878;83;20961;-69
2022/09/23 01:24:56;;;;;;;9.35;6.22;;;;;;;9.72;77.44;99966.11;1691882;82;21110;-70
2022/09/23 01:27:37;;;;;;;14.85;10.50;;;;;;;9.74;77.59;99962.03;1709440;83;21395;-69
2022/09/23 01:30:15;;;;;;;47.80;33.20;;;;;;;9.78;77.72;99956.03;1697228;83;21005;-70
2022/09/23 01:32:56;;;;;;;11.57;8.98;;;;;;;9.83;77.82;99957.31;1708512;84;21814;-70
2022/09/23 01:35:57;;;;;;;14.80;11.85;;;;;;;9.85;77.89;99958.53;1707912;82;21447;-70
2022/09/23 01:38:51;;;;;;;5.78;4.97;;;;;;;9.90;77.96;99960.29;1700046;84;21033;-73
2022/09/23 01:41:44;;;;;;;9.30;6.30;;;;;;;9.94;78.04;99954.64;1686191;82;21000;-71
2022/09/23 01:44:18;;;;;;;7.13;4.20;;;;;;;10.00;78.06;99948.00;1693026;84;21106;-70
2022/09/23 01:47:11;;;;;;;4.95;3.98;;;;;;;10.01;78.09;99947.03;1679440;84;21817;-70
2022/09/23 01:49:46;;;;;;;4.60;3.50;;;;;;;10.02;78.08;99944.26;1682171;84;21526;-70
2022/09/23 01:52:26;;;;;;;4.70;3.80;;;;;;;10.04;78.04;99944.99;1683906;82;21026;-70
2022/09/23 01:55:11;;;;;;;4.25;3.60;;;;;;;10.07;78.02;99950.48;1666802;84;21395;-70
2022/09/23 01:57:44;;;;;;;4.60;3.55;;;;;;;10.10;78.03;99951.54;1691439;83;20966;-70
2022/09/23 02:00:15;;;;;;;4.10;3.30;;;;;;;10.11;78.01;99952.38;1688736;83;21823;-70
2022/09/23 02:02:59;;;;;;;4.00;3.47;;;;;;;10.14;77.97;99949.50;1690207;83;20996;-69
2022/09/23 02:05:32;;;;;;;5.37;3.58;;;;;;;10.17;77.95;99948.75;1688074;84;20995;-70
2022/09/23 02:08:13;;;;;;;5.47;3.60;;;;;;;10.21;77.88;99948.83;1687594;84;21050;-70
2022/09/23 02:10:55;;;;;;;4.72;3.70;;;;;;;10.23;77.81;99956.64;1686991;84;21007;-70
2022/09/23 02:13:31;;;;;;;5.33;3.50;;;;;;;10.24;77.76;99955.22;1679671;84;21849;-70
2022/09/23 02:16:04;;;;;;;7.67;3.95;;;;;;;10.24;77.74;99942.50;1688247;83;21064;-70
2022/09/23 02:18:42;;;;;;;5.33;3.92;;;;;;;10.23;77.73;99944.31;1688743;83;21501;-70
2022/09/23 02:21:10;;;;;;;4.90;3.72;;;;;;;10.22;77.70;99951.84;1687904;83;21021;-70
2022/09/23 02:23:47;;;;;;;5.83;3.33;;;;;;;10.22;77.75;99949.70;1651710;85;21079;-70
2022/09/23 02:26:21;;;;;;;6.35;3.33;;;;;;;10.22;77.75;99956.30;1689086;84;21823;-70
2022/09/23 02:29:09;;;;;;;6.78;3.60;;;;;;;10.22;77.76;99953.17;1685291;84;21098;-71
2022/09/23 02:31:44;;;;;;;6.70;3.40;;;;;;;10.22;77.76;99959.77;1691752;84;20940;-70
2022/09/23 02:34:33;;;;;;;4.95;3.58;;;;;;;10.24;77.79;99957.02;1686804;83;21016;-70
2022/09/23 02:37:37;;;;;;;5.53;3.60;;;;;;;10.25;77.79;99959.53;1695087;83;20954;-69
2022/09/23 02:40:13;;;;;;;;;;;;;;;10.22;77.77;99956.30;1694099;84;22956;-69
2022/09/23 02:43:09;;;;;;;5.22;3.55;;;;;;;10.24;77.79;99959.66;1691232;84;20209;-70
2022/09/23 02:45:37;;;;;;;5.17;3.60;;;;;;;10.22;77.77;99958.45;1687062;83;20978;-70
2022/09/23 02:48:19;;;;;;;5.20;3.83;;;;;;;10.22;77.78;99971.64;1668469;83;21088;-70
2022/09/23 02:50:50;;;;;;;6.12;4.15;;;;;;;10.23;77.79;99966.75;1662770;86;21406;-70
2022/09/23 02:53:15;;;;;;;4.72;3.67;;;;;;;10.24;77.76;99967.58;1665158;85;21873;-70
2022/09/23 02:55:41;;;;;;;5.20;3.55;;;;;;;10.22;77.78;99967.69;1667523;84;20951;-70
2022/09/23 02:58:08;;;;;;;7.83;4.58;;;;;;;10.23;77.82;99969.39;1694650;82;21040;-70
2022/09/23 03:01:01;;;;;;;10.85;5.70;;;;;;;10.20;77.79;99969.59;1702593;84;20961;-70
2022/09/23 03:03:47;;;;;;;5.92;4.28;;;;;;;10.19;77.89;99968.41;1684349;84;21077;-71
2022/09/23 03:07:06;;;;;;;6.00;5.37;;;;;;;10.16;77.92;99953.67;1695500;83;22885;-70
2022/09/23 03:10:03;;;;;;;8.50;6.90;;;;;;;10.16;77.99;99959.44;1699026;83;21554;-69
2022/09/23 03:13:03;;;;;;;4.97;4.42;;;;;;;10.18;78.00;99962.78;1696461;83;21056;-71
2022/09/23 03:16:01;;;;;;;7.65;5.55;;;;;;;10.16;78.04;99968.19;1701405;83;21492;-69
2022/09/23 03:18:45;;;;;;;9.05;7.30;;;;;;;10.15;78.12;99970.96;1694454;82;21055;-69
2022/09/23 03:21:29;;;;;;;7.80;6.33;;;;;;;10.14;78.20;99958.25;1701546;83;22504;-69
2022/09/23 03:23:58;;;;;;;5.50;4.83;;;;;;;10.19;78.27;99960.48;1707413;83;20938;-69
2022/09/23 03:26:31;;;;;;;6.72;4.83;;;;;;;10.20;78.24;99956.88;1679589;83;21021;-69
2022/09/23 03:29:03;;;;;;;5.00;4.50;;;;;;;10.19;78.22;99955.20;1706131;83;21047;-69
2022/09/23 03:31:32;;;;;;;5.70;4.62;;;;;;;10.19;78.15;99959.17;1694956;84;21088;-70
2022/09/23 03:34:00;;;;;;;6.22;4.60;;;;;;;10.18;78.19;99962.30;1702323;84;22329;-69
2022/09/23 03:36:50;;;;;;;5.90;4.83;;;;;;;10.18;78.26;99972.84;1708035;82;21452;-73
2022/09/23 03:39:25;;;;;;;6.10;4.83;;;;;;;10.19;78.23;99975.00;1698267;83;21028;-72
2022/09/23 03:41:52;;;;;;;5.85;4.78;;;;;;;10.19;78.21;99968.41;1669566;85;21038;-69
2022/09/23 03:44:19;;;;;;;5.45;4.78;;;;;;;10.19;78.19;99969.23;1676244;84;21055;-69
2022/09/23 03:46:48;;;;;;;5.45;4.85;;;;;;;10.18;78.25;99967.57;1637152;85;21918;-69
2022/09/23 03:49:32;;;;;;;5.03;4.50;;;;;;;10.20;78.28;99968.27;1673087;85;20972;-69
2022/09/23 03:51:59;;;;;;;6.17;5.08;;;;;;;10.21;78.29;99962.02;1659267;84;21122;-69
2022/09/23 03:54:28;;;;;;;6.37;5.50;;;;;;;10.20;78.22;99960.84;1667136;85;20981;-69
2022/09/23 03:56:57;;;;;;;6.40;5.30;;;;;;;10.19;78.30;99963.13;1660572;84;21050;-70
2022/09/23 03:59:25;;;;;;;5.85;5.22;;;;;;;10.18;78.41;99966.25;1682841;84;21970;-69
2022/09/23 04:01:53;;;;;;;9.23;5.80;;;;;;;10.20;78.50;99968.27;1673246;84;21008;-70
2022/09/23 04:04:19;;;;;;;7.17;5.20;;;;;;;10.22;78.48;99964.21;1669015;84;21052;-69
2022/09/23 04:06:47;;;;;;;8.40;5.28;;;;;;;10.23;78.42;99968.06;1659524;84;21044;-69
2022/09/23 04:09:14;;;;;;;5.60;5.08;;;;;;;10.21;78.37;99964.66;1653525;85;21057;-72
2022/09/23 04:11:41;;;;;;;9.53;5.53;;;;;;;10.21;78.38;99962.50;1670312;84;21897;-69
2022/09/23 04:14:07;;;;;;;5.95;5.35;;;;;;;10.20;78.42;99960.84;1668953;85;21013;-69
2022/09/23 04:16:35;;;;;;;6.85;5.90;;;;;;;10.21;78.47;99970.42;1676672;84;20962;-70
2022/09/23 04:19:02;;;;;;;7.28;6.20;;;;;;;10.19;78.49;99970.56;1675982;84;21024;-69
2022/09/23 04:21:30;;;;;;;8.65;5.97;;;;;;;10.16;78.50;99967.35;1673344;85;21102;-69
2022/09/23 04:23:56;;;;;;;8.95;6.45;;;;;;;10.15;78.62;99969.64;1675802;85;21785;-69
2022/09/23 04:26:23;;;;;;;8.38;6.83;;;;;;;10.14;78.77;99967.48;1667016;84;21020;-71
2022/09/23 04:28:50;;;;;;;7.75;7.00;;;;;;;10.17;78.89;99970.34;1680960;84;21092;-70
2022/09/23 04:31:16;;;;;;;8.48;7.33;;;;;;;10.17;78.92;99969.86;1666632;85;21045;-67
2022/09/23 04:33:43;;;;;;;11.38;7.45;;;;;;;10.18;79.01;99967.57;1665257;85;21049;-70
2022/09/23 04:36:11;;;;;;;9.40;7.80;;;;;;;10.19;78.99;99962.64;1678424;84;21846;-69
2022/09/23 04:38:37;;;;;;;9.40;8.10;;;;;;;10.18;79.07;99962.30;1697861;84;20877;-69
2022/09/23 04:41:08;;;;;;;10.20;8.45;;;;;;;10.21;79.09;99962.50;1679719;84;21031;-69
2022/09/23 04:43:35;;;;;;;9.68;8.28;;;;;;;10.20;79.11;99960.84;1668812;85;21071;-69
2022/09/23 04:46:04;;;;;;;9.88;8.88;;;;;;;10.22;79.18;99966.36;1671681;84;21583;-70
2022/09/23 04:48:31;;;;;;;10.95;9.00;;;;;;;10.24;79.24;99968.90;1674812;84;21937;-69
2022/09/23 04:51:06;;;;;;;9.23;8.23;;;;;;;10.27;79.27;99968.63;1684496;84;21031;-71
2022/09/23 04:53:34;;;;;;;13.72;9.90;;;;;;;10.28;79.33;99965.02;1699032;83;21062;-70
2022/09/23 04:56:08;;;;;;;11.50;9.28;;;;;;;10.28;79.49;99965.02;1698711;83;21046;-71
2022/09/23 04:58:35;;;;;;;11.53;10.15;;;;;;;10.34;79.45;99971.60;1700588;83;21473;-70
2022/09/23 05:01:16;;;;;;;13.10;9.90;;;;;;;10.37;79.53;99980.57;1656110;83;21817;-70
2022/09/23 05:03:48;;;;;;;13.55;11.95;;;;;;;10.40;79.51;99981.62;1678916;85;21023;-70
2022/09/23 05:07:06;;;;;;;12.50;11.20;;;;;;;10.42;79.45;99982.31;1680084;84;21090;-70
2022/09/23 05:09:33;;;;;;;13.98;12.58;;;;;;;10.43;79.46;99976.94;1681725;85;21565;-71
2022/09/23 05:12:00;;;;;;;13.95;12.55;;;;;;;10.46;79.43;99984.59;1686030;85;21031;-71
2022/09/23 05:14:29;;;;;;;13.68;12.20;;;;;;;10.47;79.41;99980.14;1686986;84;20973;-69
2022/09/23 05:16:55;;;;;;;13.98;11.70;;;;;;;10.48;79.41;99987.92;1687709;83;21876;-69
2022/09/23 05:19:22;;;;;;;12.23;10.93;;;;;;;10.53;79.42;99983.59;1680853;84;21101;-68
2022/09/23 05:21:49;;;;;;;12.15;10.93;;;;;;;10.56;79.28;99986.80;1690677;84;21030;-70
2022/09/23 05:24:16;;;;;;;13.18;11.38;;;;;;;10.58;79.21;99985.34;1688791;83;21275;-71
2022/09/23 05:26:43;;;;;;;12.95;11.65;;;;;;;10.61;79.12;99983.74;1683937;84;21845;-72
2022/09/23 05:29:10;;;;;;;12.40;11.10;;;;;;;10.63;79.07;99987.11;1681867;85;21102;-69
2022/09/23 05:31:36;;;;;;;13.08;11.53;;;;;;;10.65;78.94;99982.53;1679529;84;21060;-69
2022/09/23 05:34:04;;;;;;;13.45;11.80;;;;;;;10.65;78.89;99983.02;1679470;85;21001;-70
2022/09/23 05:36:32;;;;;;;12.80;11.50;;;;;;;10.67;78.89;99983.23;1673344;83;21061;-70
2022/09/23 05:39:00;;;;;;;12.28;10.82;;;;;;;10.69;78.88;99979.13;1667449;86;22683;-69
2022/09/23 05:41:26;;;;;;;11.83;10.72;;;;;;;10.71;78.89;99978.05;1663474;85;21064;-69
2022/09/23 05:47:13;;;;;;;12.88;11.48;;;;;;;10.79;78.79;99981.33;1697037;83;21026;-69
2022/09/23 05:49:41;;;;;;;14.10;12.65;;;;;;;10.78;78.59;99976.53;1655957;84;21024;-69
2022/09/23 05:52:08;;;;;;;16.77;12.90;;;;;;;10.78;78.55;99977.02;1661296;84;21839;-69
2022/09/23 05:54:36;;;;;;;16.12;12.68;;;;;;;10.79;78.56;99976.88;1694936;84;20974;-69
2022/09/23 05:57:04;;;;;;;15.85;12.73;;;;;;;10.81;78.48;99973.64;1693672;83;21049;-70
2022/09/23 05:59:32;;;;;;;15.63;13.20;;;;;;;10.80;78.40;99977.23;1694176;84;21487;-70
2022/09/23 06:01:59;;;;;;;16.80;14.25;;;;;;;10.83;78.45;99980.11;1696966;84;21077;-70
2022/09/23 06:04:27;;;;;;;17.45;14.65;;;;;;;10.85;78.32;99980.32;1696324;84;21921;-70
2022/09/23 06:06:56;;;;;;;14.85;12.88;;;;;;;10.86;78.21;99981.98;1693998;83;21053;-70
2022/09/23 06:09:23;;;;;;;17.17;13.58;;;;;;;10.87;78.26;99978.37;1653008;83;21059;-67
2022/09/23 06:11:51;;;;;;;15.65;12.33;;;;;;;10.88;78.15;99971.28;1695225;83;21095;-69
2022/09/23 06:14:18;;;;;;;16.93;13.20;;;;;;;10.88;78.17;99976.08;1697704;83;21050;-69
2022/09/23 06:16:46;;;;;;;17.77;13.45;;;;;;;10.89;78.04;99969.83;1697680;84;21567;-69
2022/09/23 06:19:13;;;;;;;18.12;13.95;;;;;;;10.92;78.01;99974.52;1698934;83;20954;-71
2022/09/23 06:21:40;;;;;;;19.15;15.10;;;;;;;10.97;78.00;99976.25;1697661;83;20934;-70
2022/09/23 06:24:07;;;;;;;17.85;14.85;;;;;;;11.00;77.87;99974.20;1697386;84;21527;-69
2022/09/23 06:26:36;;;;;;;17.65;15.30;;;;;;;11.01;77.92;99981.64;1690242;83;21078;-70
2022/09/23 06:29:10;;;;;;;18.70;14.65;;;;;;;11.03;77.75;99982.34;1693164;83;22262;-73
2022/09/23 06:31:43;;;;;;;18.70;15.20;;;;;;;11.09;77.66;99983.94;1706743;83;21594;-70
2022/09/23 06:34:12;;;;;;;16.75;14.28;;;;;;;11.09;77.55;99980.45;1696949;84;21067;-70
2022/09/23 06:36:41;;;;;;;17.82;15.85;;;;;;;11.13;77.51;99978.75;1695271;84;21054;-72
2022/09/23 06:39:08;;;;;;;19.23;15.65;;;;;;;11.17;77.49;99976.66;1696757;84;21066;-70
2022/09/23 06:41:35;;;;;;;18.82;14.78;;;;;;;11.26;77.50;99982.95;1738141;82;21934;-70
2022/09/23 06:44:02;;;;;;;20.48;15.23;;;;;;;11.32;77.35;99971.84;1665105;84;21062;-71
2022/09/23 06:46:30;;;;;;;17.20;14.60;;;;;;;11.36;77.17;99974.55;1701334;83;21031;-69
2022/09/23 06:48:58;;;;;;;20.32;15.23;;;;;;;11.43;77.15;99976.52;1704336;83;21000;-69
2022/09/23 06:51:25;;;;;;;19.73;14.18;;;;;;;11.45;76.80;99972.41;1703638;83;21044;-72
2022/09/23 06:53:51;;;;;;;23.73;14.80;;;;;;;11.52;76.86;99970.89;1652582;84;21887;-70
2022/09/23 06:59:49;;;;;;;20.23;15.53;;;;;;;11.64;76.56;99972.42;1652259;86;21323;-70
2022/09/23 07:02:16;;;;;;;22.75;15.80;;;;;;;11.61;75.81;99968.75;1664777;86;21032;-70
2022/09/23 07:04:42;;;;;;;19.17;14.78;;;;;;;11.64;75.92;99967.62;1667005;84;21532;-70
2022/09/23 07:07:10;;;;;;;17.10;14.63;;;;;;;11.72;75.88;99967.77;1658438;85;21917;-71
2022/09/23 07:09:37;;;;;;;20.12;15.70;;;;;;;11.81;75.81;99974.91;1663503;83;21034;-70
2022/09/23 07:12:04;;;;;;;18.85;15.25;;;;;;;11.88;75.52;99966.77;1670252;84;21242;-70
2022/09/23 07:14:31;;;;;;;17.27;13.98;;;;;;;11.96;75.50;99966.05;1670566;84;21050;-70
2022/09/23 07:16:58;;;;;;;16.05;13.45;;;;;;;12.11;75.51;99971.27;1651955;85;21046;-69
2022/09/23 07:19:25;;;;;;;13.75;11.45;;;;;;;12.20;75.09;99969.09;1660399;85;21919;-71
2022/09/23 07:21:51;;;;;;;14.33;12.82;;;;;;;12.26;74.70;99970.35;1660324;85;21019;-69
2022/09/23 07:24:18;;;;;;;13.85;12.40;;;;;;;12.27;74.07;99969.37;1653941;85;21102;-70
2022/09/23 07:26:44;;;;;;;14.78;12.23;;;;;;;12.31;73.74;99968.09;1662062;85;21063;-68
2022/09/23 07:29:12;;;;;;;14.63;11.63;;;;;;;12.35;73.50;99960.69;1667281;85;21047;-68
2022/09/23 07:31:40;;;;;;;14.23;11.40;;;;;;;12.43;73.39;99959.00;1661494;85;22513;-69
2022/09/23 07:34:10;;;;;;;12.78;10.78;;;;;;;12.53;73.22;99962.94;1658125;85;21086;-68
2022/09/23 07:36:39;;;;;;;14.28;11.43;;;;;;;12.62;72.77;99958.09;1631494;86;21106;-68
2022/09/23 07:39:10;;;;;;;12.28;10.98;;;;;;;12.70;72.59;99961.35;1663958;85;21104;-68
2022/09/23 07:41:37;;;;;;;13.10;9.63;;;;;;;12.76;72.21;99955.48;1669856;85;20970;-69
2022/09/23 07:44:04;;;;;;;11.97;10.10;;;;;;;12.76;71.62;99952.34;1669613;85;40954;-68
2022/09/23 07:46:33;;;;;;;10.95;9.50;;;;;;;12.81;71.57;99952.72;1662264;85;21042;-68
2022/09/23 07:49:02;;;;;;;12.33;9.13;;;;;;;12.88;71.02;99951.16;1669251;85;21056;-68
2022/09/23 07:51:32;;;;;;;11.53;9.10;;;;;;;12.95;70.75;99944.80;1643577;85;21135;-68
2022/09/23 07:53:59;;;;;;;9.60;8.40;;;;;;;12.99;70.39;99946.16;1653486;84;21498;-68
2022/09/23 07:56:28;;;;;;;9.38;8.48;;;;;;;13.01;70.25;99945.51;1700755;83;21935;-67
2022/09/23 07:59:04;;;;;;;7.92;7.12;;;;;;;13.00;69.37;99950.47;1700284;83;21501;-68
2022/09/23 08:01:36;;;;;;;10.43;7.42;;;;;;;12.98;69.40;99943.16;1708692;83;21017;-68
2022/09/23 08:04:11;;;;;;;8.45;6.83;;;;;;;13.00;69.42;99944.34;1705652;83;21033;-71
2022/09/23 08:06:44;;;;;;;7.47;6.67;;;;;;;13.03;69.23;99940.92;1708310;83;21049;-69
2022/09/23 08:09:11;;;;;;;7.62;6.92;;;;;;;13.08;69.10;99939.97;1708451;83;21896;-68
2022/09/23 08:11:40;;;;;;;7.37;6.65;;;;;;;13.12;68.99;99940.03;1711865;83;21514;-68
2022/09/23 08:14:12;;;;;;;8.80;6.50;;;;;;;13.17;68.71;99937.75;1703088;82;21463;-70
2022/09/23 08:16:40;;;;;;;7.83;7.03;;;;;;;13.20;68.47;99938.45;1687786;83;21061;-71
2022/09/23 08:19:07;;;;;;;8.30;7.40;;;;;;;13.21;68.32;99940.13;1673612;84;21091;-68
2022/09/23 08:21:36;;;;;;;12.98;10.50;;;;;;;13.17;68.17;99936.42;1680719;84;21922;-70
2022/09/23 08:24:04;;;;;;;13.28;10.30;;;;;;;13.20;68.35;99935.81;1672494;83;21003;-68
2022/09/23 08:26:33;;;;;;;10.50;9.40;;;;;;;13.24;68.46;99930.56;1681019;84;21475;-67
2022/09/23 08:29:00;;;;;;;10.32;9.30;;;;;;;13.26;68.34;99932.57;1681200;85;21053;-68
2022/09/23 08:31:27;;;;;;;11.08;8.80;;;;;;;13.24;68.25;99934.05;1700039;83;21001;-70
2022/09/23 08:33:55;;;;;;;9.38;8.35;;;;;;;13.25;68.12;99932.23;1704875;83;21969;-68
2022/09/23 08:36:22;;;;;;;12.30;8.15;;;;;;;13.22;68.01;99932.51;1706152;83;21428;-69
2022/09/23 08:38:49;;;;;;;8.80;8.00;;;;;;;13.20;67.90;99930.50;1692514;83;21050;-70
2022/09/23 08:41:33;;;;;;;9.15;8.35;;;;;;;13.21;68.12;99930.35;1701499;83;21498;-68
2022/09/23 08:44:24;;;;;;;8.70;7.90;;;;;;;13.23;68.13;99927.08;1700125;83;21055;-71
2022/09/23 08:46:55;;;;;;;8.33;7.37;;;;;;;13.26;68.03;99931.24;1721020;81;22475;-69
2022/09/23 08:49:27;;;;;;;10.25;7.80;;;;;;;13.29;67.91;99927.78;1701814;82;21016;-68
2022/09/23 08:51:54;;;;;;;9.83;7.78;;;;;;;13.29;67.73;99920.33;1694677;83;21043;-68
2022/09/23 08:54:22;;;;;;;8.80;7.70;;;;;;;13.30;67.76;99921.50;1682517;83;21050;-67
2022/09/23 08:56:51;;;;;;;8.48;7.28;;;;;;;13.34;67.63;99923.38;1683913;84;21102;-69
2022/09/23 08:59:40;;;;;;;8.20;7.35;;;;;;;13.36;67.28;99925.37;1686143;84;21584;-68
2022/09/23 09:02:21;;;;;;;9.20;6.62;;;;;;;13.36;67.22;99922.73;1642939;86;21046;-68
2022/09/23 09:04:58;;;;;;;7.28;6.58;;;;;;;13.40;67.34;99922.26;1644944;85;21055;-68
2022/09/23 09:07:29;;;;;;;6.33;5.72;;;;;;;13.49;67.01;99916.55;1645011;84;21119;-68
2022/09/23 09:10:17;;;;;;;6.40;5.53;;;;;;;13.60;66.64;99916.31;1656569;86;21001;-68
2022/09/23 09:12:56;;;;;;;269.10;18.48;;;;;;;13.69;65.97;99915.89;1656727;84;21853;-68
2022/09/23 09:15:28;;;;;;;105.97;11.20;;;;;;;13.82;65.90;99916.84;1656569;84;21156;-68
2022/09/23 09:18:10;;;;;;;11.53;5.90;;;;;;;13.97;65.44;99917.94;1645710;84;21176;-72
2022/09/23 09:20:56;;;;;;;6.60;5.25;;;;;;;14.11;64.92;99917.40;1655459;84;21110;-73
2022/09/23 09:23:52;;;;;;;5.55;5.05;;;;;;;14.27;64.31;99913.99;1652062;84;21090;-70
2022/09/23 09:26:23;;;;;;;6.03;5.45;;;;;;;14.41;63.51;99918.74;1659120;84;21952;-71
2022/09/23 09:29:03;;;;;;;88.95;9.13;;;;;;;14.45;62.83;99915.30;1645276;86;22355;-70
2022/09/23 09:31:36;;;;;;;44.55;6.28;;;;;;;14.32;63.58;99913.88;1646534;86;21126;-70
2022/09/23 09:34:15;;;;;;;6.22;2.72;;;;;;;14.14;63.70;99914.42;1652210;84;21048;-73
2022/09/23 09:37:05;;;;;;;273.62;19.40;;;;;;;13.88;63.47;99917.54;1670005;84;21051;-72
2022/09/23 09:39:33;;;;;;;105.63;9.83;;;;;;;13.60;64.56;99918.96;1657813;86;21881;-72
2022/09/23 09:42:02;;;;;;;202.90;15.45;;;;;;;13.41;65.58;99917.78;1636185;86;21098;-72
2022/09/23 09:44:37;;;;;;;26.60;7.80;;;;;;;13.31;66.36;99911.22;1657016;86;21088;-70
2022/09/23 09:47:45;;;;;;;31.85;9.38;;;;;;;13.26;66.81;99909.53;1647924;86;21040;-72
2022/09/23 09:50:20;;;;;;;70.95;11.35;;;;;;;13.24;67.69;99915.98;1647874;84;21069;-73
2022/09/23 09:52:44;;;;;;;263.68;21.90;;;;;;;13.30;69.10;99909.56;1656087;84;21854;-73
2022/09/23 09:55:24;;;;;;;43.38;10.85;;;;;;;13.41;70.21;99903.20;1687875;83;21074;-73
2022/09/23 09:57:59;;;;;;;120.65;15.08;;;;;;;13.55;71.09;99909.31;1690886;83;21122;-72
2022/09/23 10:00:29;;;;;;;74.97;13.98;;;;;;;13.73;71.88;99905.33;1688886;83;21437;-76
2022/09/23 10:03:07;;;;;;;67.63;12.10;;;;;;;13.87;72.66;99900.78;1683139;83;21009;-72
2022/09/23 10:05:46;;;;;;;22.42;11.63;;;;;;;14.03;72.37;99898.75;1690270;83;21749;-72
2022/09/23 10:08:38;;;;;;;99.90;13.50;;;;;;;14.26;72.25;99901.70;1669701;83;21042;-75
2022/09/23 10:11:16;;;;;;;341.65;26.62;;;;;;;14.56;71.73;99899.08;1712956;82;21505;-71
2022/09/23 10:14:17;;;;;;;23.50;11.65;;;;;;;14.84;71.08;99899.69;1698034;82;21043;-72
2022/09/23 10:16:47;;;;;;;1050.20;107.52;;;;;;;14.91;70.28;99898.56;1703060;83;21034;-72
2022/09/23 10:19:25;;;;;;;89.55;21.17;;;;;;;14.78;69.44;99904.34;1717963;82;21781;-72
2022/09/23 10:21:55;;;;;;;62.70;13.83;;;;;;;14.67;69.53;99912.58;1701425;83;21043;-69
2022/09/23 10:24:25;;;;;;;12.98;9.83;;;;;;;14.46;69.33;99908.98;1700106;83;21058;-71
2022/09/23 10:27:07;;;;;;;9.75;8.83;;;;;;;14.24;68.82;99911.16;1667339;84;21085;-68
2022/09/23 10:29:41;;;;;;;31.90;9.00;;;;;;;14.01;67.97;99908.20;1703231;83;21593;-70
2022/09/23 10:32:24;;;;;;;12.07;10.18;;;;;;;13.84;68.60;99900.27;1683989;84;21826;-70
2022/09/23 10:35:16;;;;;;;138.50;16.35;;;;;;;13.80;68.86;99896.23;1679659;84;21054;-70
2022/09/23 10:37:51;;;;;;;36.68;11.00;;;;;;;13.78;69.23;99904.36;1697868;82;21518;-72
2022/09/23 10:46:44;;;;;;;99.95;17.23;;;;;;;13.77;68.66;99892.57;1678321;84;22228;-71
2022/09/23 10:49:41;;;;;;;13.93;10.00;;;;;;;13.70;69.09;99900.30;1678750;85;21050;-73
2022/09/23 10:52:48;;;;;;;12.80;10.35;;;;;;;13.77;69.45;99896.05;1705673;83;21039;-71
2022/09/23 10:55:29;;;;;;;12.63;11.33;;;;;;;13.90;69.95;99899.66;1693816;82;21056;-72
2022/09/23 10:58:21;;;;;;;11.53;10.32;;;;;;;14.12;70.81;99893.83;1694522;82;21031;-70
2022/09/23 11:01:20;;;;;;;12.25;10.95;;;;;;;14.32;70.56;99896.61;1686612;83;22049;-71
2022/09/23 11:04:22;;;;;;;204.53;20.30;;;;;;;14.64;71.31;99894.30;1681683;84;21055;-70
2022/09/23 11:07:28;;;;;;;24.43;11.70;;;;;;;15.10;71.64;99887.15;1725306;82;21023;-70
2022/09/23 11:10:20;;;;;;;13.45;10.88;;;;;;;15.65;71.24;99884.43;1676538;84;21068;-70
2022/09/23 11:13:10;;;;;;;12.70;11.38;;;;;;;15.96;68.80;99884.58;1666404;85;20973;-70
2022/09/23 11:16:06;;;;;;;19.52;12.53;;;;;;;15.96;67.11;99880.58;1651204;86;22353;-69
2022/09/23 11:18:53;;;;;;;14.65;11.65;;;;;;;15.88;66.87;99885.41;1688518;83;21068;-69
2022/09/23 11:21:31;;;;;;;15.72;11.22;;;;;;;15.81;66.61;99882.25;1682788;83;21058;-68
2022/09/23 11:24:26;;;;;;;10.28;9.28;;;;;;;15.72;65.85;99881.41;1672045;83;21058;-68
2022/09/23 11:27:32;;;;;;;7.58;6.78;;;;;;;15.55;65.90;99881.07;1677497;84;21057;-70
2022/09/23 11:30:14;;;;;;;5.22;4.40;;;;;;;15.35;65.48;99880.05;1677581;84;21939;-70
2022/09/23 11:33:20;;;;;;;4.92;3.55;;;;;;;15.12;64.32;99882.49;1705566;83;21048;-72
2022/09/23 11:35:55;;;;;;;7.42;4.15;;;;;;;14.97;64.12;99885.46;1671436;84;21074;-71
2022/09/23 11:38:29;;;;;;;5.55;3.70;;;;;;;14.94;64.35;99886.27;1696151;84;21029;-70
2022/09/23 11:40:59;;;;;;;7.08;3.70;;;;;;;14.91;64.30;99884.77;1704260;82;21098;-73
2022/09/23 11:43:32;;;;;;;7.40;4.67;;;;;;;14.83;64.16;99890.89;1716219;82;21843;-72
2022/09/23 11:46:08;;;;;;;5.92;4.55;;;;;;;14.76;63.95;99891.19;1687348;83;21054;-71
2022/09/23 11:48:58;;;;;;;7.25;5.37;;;;;;;14.57;63.79;99900.27;1684862;84;21045;-70
2022/09/23 11:51:30;;;;;;;8.10;5.25;;;;;;;14.29;64.10;99900.91;1672134;83;21049;-69
2022/09/23 11:54:05;;;;;;;7.97;5.47;;;;;;;14.00;64.51;99898.57;1687667;82;21119;-69
2022/09/23 11:56:43;;;;;;;9.73;5.80;;;;;;;13.77;65.38;99899.20;1673100;84;22464;-70
2022/09/23 11:59:33;;;;;;;6.80;6.00;;;;;;;13.56;65.96;99898.20;1673205;83;21102;-72
2022/09/23 12:02:03;;;;;;;9.90;7.50;;;;;;;13.44;66.60;99901.09;1667798;83;21079;-71
2022/09/23 12:04:39;;;;;;;10.82;7.42;;;;;;;13.34;67.26;99900.34;1712378;82;21111;-71
2022/09/23 12:07:20;;;;;;;9.50;8.60;;;;;;;13.25;67.72;99896.43;1706244;82;21049;-70
2022/09/23 12:09:56;;;;;;;13.13;9.40;;;;;;;13.13;68.39;99899.27;1695039;84;21888;-72
2022/09/23 12:13:07;;;;;;;11.18;9.43;;;;;;;13.02;68.80;99890.17;1706870;83;21022;-69
2022/09/23 12:15:54;;;;;;;10.95;9.40;;;;;;;12.91;69.12;99885.08;1706849;82;21484;-69